• Join FlightAware (Why Join?)
  • Login
  • US Flag 
02:16AM EST


 

Airport Tracker/Info


-or-


 

Live Flight TrackerFlight Track Log ✈ NLY2803 ✈ 09-Sep-2013 ✈ LGSR / JTR - LOWW / VIE

Flight Track Log - Related Links

Times and Time Zones

All times are in EDT time to prevent confusion due to time zone crossing. See the NLY2803 flight status page for this flight to view local times or setup timezone preferences in your user account.

Time Position Orientation Groundspeed Altitude Reporting Facility
EDT Latitude Longitude Course Direction KTS MPH feet Rate Location/Type
08:55AM 36.4210 25.4690 339° North 134 154 1,800  Level FlightAware
08:55AM 36.4300 25.4630 332° Northwest 143 165 2,300 1,500 Climbing FlightAware
08:55AM 36.4320 25.4600 310° West 151 174 2,300 480 Level FlightAware
08:55AM 36.4330 25.4520 279° West 168 193 2,400 720 Climbing FlightAware
08:56AM 36.4340 25.4350 274° West 191 220 2,600 660 Climbing FlightAware
08:56AM 36.4340 25.4160 270° West 212 244 2,800 900 Climbing FlightAware
08:56AM 36.4350 25.3960 274° West 230 265 3,100 1,200 Climbing FlightAware
08:57AM 36.4420 25.3650 286° West 245 282 3,600 1,620 Climbing FlightAware
08:57AM 36.4500 25.3510 305° West 251 289 4,100 2,400 Climbing FlightAware
08:57AM 36.4590 25.3310 299° West 266 306 4,700 2,640 Climbing FlightAware
08:57AM 36.4700 25.3020 295° West 267 307 5,700 2,820 Climbing FlightAware
08:58AM 36.4800 25.2750 295° West 270 311 6,600 2,460 Climbing FlightAware
08:58AM 36.4910 25.2450 295° West 281 323 7,400 2,280 Climbing FlightAware
08:59AM 36.5030 25.2110 294° West 287 330 8,300 2,340 Climbing FlightAware
08:59AM 36.5140 25.1800 294° West 287 330 9,100 2,400 Climbing FlightAware
08:59AM 36.5320 25.1290 294° West 290 334 10,500 1,800 Climbing FlightAware
09:00AM 36.5530 25.0700 294° West 322 371 11,200 1,080 Climbing FlightAware
09:01AM 36.5760 25.0060 294° West 353 406 11,800 1,140 Climbing FlightAware
09:01AM 36.5980 24.9450 294° West 373 429 12,500 1,740 Climbing FlightAware
09:02AM 36.6240 24.8720 294° West 380 437 13,800 1,980 Climbing FlightAware
09:02AM 36.6500 24.7990 294° West 389 448 14,900 1,860 Climbing FlightAware
09:03AM 36.6760 24.7240 293° West 393 452 16,100 1,800 Climbing FlightAware
09:04AM 36.6990 24.6580 294° West 402 463 17,000 1,560 Climbing FlightAware
09:04AM 36.7280 24.5760 294° West 403 464 18,000 1,680 Climbing FlightAware
09:04AM 36.7410 24.5510 303° West 398 458 18,400 1,680 Climbing FlightAware
09:05AM 36.7670 24.5210 317° Northwest 391 450 18,900 1,500 Climbing FlightAware
09:05AM 36.7940 24.5080 339° North 390 449 19,300 1,380 Climbing FlightAware
09:06AM 36.8570 24.4910 348° North 398 458 20,100 1,320 Climbing FlightAware
09:06AM 36.9160 24.4750 348° North 405 466 20,800 1,380 Climbing FlightAware
09:07AM 36.9830 24.4560 347° North 408 470 21,700 1,380 Climbing FlightAware
09:07AM 37.0490 24.4380 348° North 414 476 22,500 1,320 Climbing FlightAware
09:08AM 37.1110 24.4210 348° North 420 483 23,200 1,380 Climbing FlightAware
09:08AM 37.1760 24.4030 348° North 420 483 24,100 1,500 Climbing FlightAware
09:09AM 37.2340 24.3870 348° North 421 484 24,900 1,500 Climbing FlightAware
09:10AM 37.3090 24.3670 348° North 425 489 25,800 1,200 Climbing FlightAware
09:10AM 37.3730 24.3500 348° North 427 491 26,400 1,020 Climbing FlightAware
09:11AM 37.4460 24.3300 348° North 430 495 27,100 1,200 Climbing FlightAware
09:11AM 37.4710 24.3230 347° North 429 494 27,500 1,680 Climbing FlightAware
09:12AM 37.5720 24.2930 347° North 421 484 29,000 1,560 Climbing FlightAware
09:13AM 37.6470 24.2620 342° North 420 483 29,900 1,320 Climbing FlightAware
09:13AM 37.7050 24.2380 342° North 416 479 30,700 1,620 Climbing FlightAware
09:14AM 37.7780 24.2080 342° North 410 472 31,800 1,380 Climbing FlightAware
09:14AM 37.8440 24.1810 342° North 411 473 32,500 1,080 Climbing FlightAware
09:15AM 37.9070 24.1550 342° North 408 470 33,200 1,020 Climbing FlightAware
09:16AM 37.9700 24.1280 341° North 409 471 33,700 660 Climbing FlightAware
09:16AM 38.0370 24.1010 342° North 411 473 34,000 240 Climbing FlightAware
09:17AM 38.0990 24.0750 342° North 406 467 34,000  Level FlightAware
09:17AM 38.1690 24.0450 341° North 404 465 34,000  Level FlightAware
09:18AM 38.2360 24.0170 342° North 402 463 34,000  Level FlightAware
09:19AM 38.2880 23.9950 342° North 401 461 34,000  Level FlightAware
09:19AM 38.3480 23.9700 342° North 402 463 34,000  Level FlightAware
09:20AM 38.3980 23.9500 343° North 404 465 34,000  Level FlightAware
09:20AM 38.4570 23.9250 342° North 406 467 34,000  Level FlightAware
09:21AM 38.5230 23.8970 342° North 408 470 34,000  Level FlightAware
09:21AM 38.5850 23.8700 341° North 410 472 34,000 60 Level FlightAware
09:22AM 38.6690 23.8350 342° North 411 473 34,100 60 Climbing FlightAware
09:23AM 38.7380 23.8050 341° North 409 471 34,100  Level FlightAware
09:24AM 38.8170 23.7710 341° North 407 468 34,100 -120 Level FlightAware
09:24AM 38.8850 23.7430 342° North 404 465 34,000 -120 Descending FlightAware
09:25AM 38.9570 23.7120 341° North 395 455 34,000  Level FlightAware
09:25AM 39.0170 23.6860 341° North 395 455 34,000  Level FlightAware
09:26AM 39.0700 23.6640 342° North 395 455 34,000  Level FlightAware
09:27AM 39.1460 23.6300 341° North 403 464 34,000  Level FlightAware
09:27AM 39.2000 23.6070 342° North 403 464 34,000  Level FlightAware
09:28AM 39.2700 23.5740 340° North 398 458 34,000  Level FlightAware
09:28AM 39.3370 23.5410 339° North 399 459 34,000  Level FlightAware
09:29AM 39.3930 23.5140 340° North 398 458 34,000  Level FlightAware
09:30AM 39.4710 23.4760 339° North 397 457 34,000  Level FlightAware
09:30AM 39.5330 23.4460 340° North 396 456 34,000  Level FlightAware
09:31AM 39.5940 23.4160 339° North 396 456 34,000  Level FlightAware
09:31AM 39.6550 23.3870 340° North 394 453 34,000  Level FlightAware
09:32AM 39.7150 23.3580 340° North 393 452 34,000  Level FlightAware
09:33AM 39.7770 23.3270 339° North 393 452 34,000 60 Level FlightAware
09:33AM 39.8380 23.2980 340° North 397 457 34,100 480 Climbing FlightAware
09:34AM 39.9000 23.2720 342° North 406 467 34,600 840 Climbing FlightAware
09:34AM 39.9610 23.2470 343° North 406 467 35,100 840 Climbing FlightAware
09:35AM 40.0260 23.2200 342° North 407 468 35,600 720 Climbing FlightAware
09:35AM 40.0880 23.1940 342° North 403 464 36,000 300 Climbing FlightAware
09:36AM 40.1510 23.1680 342° North 402 463 36,000  Level FlightAware
09:37AM 40.2130 23.1430 343° North 392 451 36,000  Level FlightAware
09:37AM 40.2740 23.1170 342° North 390 449 36,000  Level FlightAware
09:38AM 40.3360 23.0920 343° North 391 450 36,000  Level FlightAware
09:38AM 40.4060 23.0620 342° North 391 450 36,000  Level FlightAware
09:39AM 40.4570 23.0410 343° North 392 451 36,000  Level FlightAware
09:40AM 40.5190 23.0150 342° North 402 463 36,000  Level FlightAware
09:40AM 40.5820 22.9890 343° North 403 464 36,000  Level FlightAware
09:41AM 40.6450 22.9620 342° North 404 465 36,000  Level FlightAware
09:41AM 40.7070 22.9360 342° North 405 466 36,000  Level FlightAware
09:42AM 40.7690 22.9100 342° North 407 468 36,000 60 Level FlightAware
09:43AM 40.8410 22.8800 343° North 406 467 36,100  Climbing FlightAware
09:43AM 40.8950 22.8570 342° North 406 467 36,000 -120 Descending FlightAware
09:44AM 40.9580 22.8300 342° North 406 467 36,000  Level FlightAware
09:44AM 41.0200 22.8040 342° North 405 466 36,000  Level FlightAware
09:45AM 41.1000 22.7700 342° North 404 465 36,000  Level FlightAware
09:46AM 41.1620 22.7440 342° North 403 464 36,000  Level FlightAware
09:46AM 41.2240 22.7180 342° North 403 464 36,000  Level FlightAware
09:47AM 41.2860 22.6930 343° North 403 464 36,000  Level FlightAware
09:47AM 41.3580 22.6630 343° North 404 465 36,000  Level FlightAware
09:48AM 41.4200 22.6360 342° North 404 465 36,000  Level FlightAware
09:49AM 41.4840 22.6100 343° North 406 467 36,000  Level FlightAware
09:49AM 41.5440 22.5850 343° North 408 470 36,000  Level FlightAware
09:50AM 41.6090 22.5570 342° North 402 463 36,000 60 Level FlightAware
09:50AM 41.6720 22.5310 343° North 402 463 36,100 60 Climbing FlightAware
09:51AM 41.7360 22.5030 342° North 402 463 36,100 -120 Level FlightAware
09:51AM 41.7950 22.4780 342° North 408 470 36,000 -120 Descending FlightAware
09:52AM 41.8570 22.4520 343° North 408 470 36,000  Level FlightAware
09:53AM 41.9200 22.4250 342° North 408 470 36,000  Level FlightAware
09:53AM 41.9840 22.3980 343° North 407 468 36,000  Level FlightAware
09:54AM 42.0500 22.3700 343° North 407 468 36,000  Level FlightAware
09:54AM 42.1210 22.3390 342° North 407 468 36,000  Level FlightAware
09:55AM 42.1780 22.3150 343° North 406 467 36,000  Level FlightAware
09:56AM 42.2480 22.2840 342° North 406 467 36,000  Level FlightAware
09:56AM 42.3080 22.2590 343° North 407 468 36,000  Level FlightAware
09:57AM 42.3640 22.2310 340° North 407 468 36,000  Level FlightAware
09:57AM 42.4200 22.2020 339° North 409 471 36,000  Level FlightAware
09:58AM 42.4920 22.1640 339° North 410 472 36,000  Level FlightAware
09:58AM 42.5560 22.1300 339° North 412 474 36,000  Level FlightAware
09:59AM 42.6200 22.0960 339° North 412 474 36,000  Level FlightAware
10:00AM 42.6760 22.0670 339° North 413 475 36,000  Level FlightAware
10:00AM 42.7410 22.0320 338° Northwest 413 475 36,000  Level FlightAware
10:01AM 42.8020 22.0000 339° North 413 475 36,000  Level FlightAware
10:01AM 42.8640 21.9660 338° Northwest 414 476 36,000  Level FlightAware
10:02AM 42.9280 21.9320 339° North 414 476 36,000  Level FlightAware
10:03AM 42.9870 21.9010 339° North 414 476 36,000 -540 Level FlightAware
10:03AM 43.0510 21.8660 338° Northwest 412 474 35,400 -1,020 Descending FlightAware
10:04AM 43.1180 21.8310 339° North 413 475 34,800 -960 Descending FlightAware
10:04AM 43.1760 21.7990 338° Northwest 417 480 34,300 -780 Descending FlightAware
10:05AM 43.2360 21.7670 339° North 416 479 34,000 -300 Descending FlightAware
10:05AM 43.3050 21.7290 338° Northwest 417 480 34,000  Level FlightAware
10:06AM 43.3680 21.6950 339° North 418 481 34,000  Level FlightAware
10:07AM 43.4250 21.6640 338° Northwest 420 483 34,000  Level FlightAware
10:07AM 43.4900 21.6280 338° Northwest 421 484 34,000  Level FlightAware
10:08AM 43.5580 21.5910 338° Northwest 421 484 34,000  Level FlightAware
10:08AM 43.6220 21.5560 338° Northwest 421 484 34,000  Level FlightAware
10:09AM 43.6800 21.5240 338° Northwest 420 483 34,000  Level FlightAware
10:10AM 43.7400 21.4910 338° Northwest 420 483 34,000  Level FlightAware
10:10AM 43.8100 21.4530 339° North 419 482 34,000  Level FlightAware
10:11AM 43.8810 21.4130 338° Northwest 418 481 34,000  Level FlightAware
10:12AM 43.9530 21.3730 338° Northwest 417 480 34,000  Level FlightAware
10:12AM 44.0210 21.3360 339° North 417 480 34,000  Level FlightAware
10:13AM 44.0830 21.3010 338° Northwest 418 481 34,000  Level FlightAware
10:13AM 44.1390 21.2700 338° Northwest 418 481 34,000  Level FlightAware
10:14AM 44.2220 21.2240 338° Northwest 418 481 34,000  Level FlightAware
10:15AM 44.2840 21.1890 338° Northwest 419 482 34,000  Level FlightAware
10:15AM 44.3490 21.1520 338° Northwest 420 483 34,000  Level FlightAware
10:16AM 44.4070 21.1200 338° Northwest 422 486 34,000  Level FlightAware
10:16AM 44.4730 21.0830 338° Northwest 423 487 34,000  Level FlightAware
10:17AM 44.5370 21.0460 338° Northwest 425 489 34,000 60 Level FlightAware
10:18AM 44.6050 21.0080 338° Northwest 425 489 34,100  Climbing FlightAware
10:18AM 44.6640 20.9740 338° Northwest 425 489 34,000 -120 Descending FlightAware
10:19AM 44.7380 20.9320 338° Northwest 419 482 34,000  Level FlightAware
10:19AM 44.7940 20.9000 338° Northwest 419 482 34,000  Level FlightAware
10:20AM 44.8710 20.8560 338° Northwest 426 490 34,000  Level FlightAware
10:21AM 44.9330 20.8200 338° Northwest 426 490 34,000  Level FlightAware
10:21AM 45.0100 20.7750 338° Northwest 426 490 34,000  Level FlightAware
10:22AM 45.0800 20.7350 338° Northwest 426 490 34,000  Level FlightAware
10:23AM 45.1510 20.6940 338° Northwest 427 491 34,000  Level FlightAware
10:23AM 45.2160 20.6560 338° Northwest 428 493 34,000  Level FlightAware
10:24AM 45.2800 20.6190 338° Northwest 429 494 34,000  Level FlightAware
10:24AM 45.3420 20.5830 338° Northwest 429 494 34,000  Level FlightAware
10:25AM 45.3980 20.5500 338° Northwest 429 494 34,000  Level FlightAware
10:25AM 45.4620 20.5130 338° Northwest 429 494 34,000  Level FlightAware
10:26AM 45.5330 20.4710 337° Northwest 427 491 34,000  Level FlightAware
10:27AM 45.5970 20.4330 337° Northwest 426 490 34,000  Level FlightAware
10:27AM 45.6710 20.3890 337° Northwest 425 489 34,000  Level FlightAware
10:28AM 45.7390 20.3490 338° Northwest 426 490 34,000  Level FlightAware
10:28AM 45.8060 20.3090 337° Northwest 428 493 34,000  Level FlightAware
10:29AM 45.8620 20.2760 338° Northwest 430 495 34,000  Level FlightAware
10:30AM 45.9240 20.2390 337° Northwest 432 497 34,000  Level FlightAware
10:30AM 45.9920 20.1980 337° Northwest 435 501 34,000  Level FlightAware
10:31AM 46.0630 20.1560 338° Northwest 437 503 34,000  Level FlightAware
10:31AM 46.1190 20.1190 335° Northwest 434 499 34,000  Level FlightAware
10:32AM 46.1740 20.0560 322° Northwest 415 478 34,000  Level FlightAware
10:33AM 46.2230 19.9800 313° West 418 481 34,000  Level FlightAware
10:33AM 46.2720 19.9040 313° West 423 487 34,000  Level FlightAware
10:34AM 46.3120 19.8410 313° West 426 490 34,000 60 Level FlightAware
10:34AM 46.3570 19.7710 313° West 428 493 34,100 60 Climbing FlightAware
10:35AM 46.4080 19.6910 313° West 427 491 34,100  Level FlightAware
10:35AM 46.4500 19.6240 312° West 426 490 34,100 -120 Level FlightAware
10:36AM 46.5040 19.5400 313° West 426 490 34,000 -120 Descending FlightAware
10:37AM 46.5510 19.4660 313° West 428 493 34,000  Level FlightAware
10:37AM 46.5970 19.3920 312° West 431 496 34,000  Level FlightAware
10:38AM 46.6470 19.3140 313° West 433 498 34,000 60 Level FlightAware
10:38AM 46.7000 19.2280 312° West 433 498 34,100 60 Climbing FlightAware
10:39AM 46.7490 19.1510 313° West 431 496 34,100 -120 Level FlightAware
10:40AM 46.7930 19.0800 312° West 430 495 34,000 -120 Descending FlightAware
10:40AM 46.8430 19.0000 312° West 431 496 34,000  Level FlightAware
10:41AM 46.8910 18.9220 312° West 433 498 34,000  Level FlightAware
10:41AM 46.9340 18.8520 312° West 436 502 34,000  Level FlightAware
10:42AM 46.9840 18.7710 312° West 439 505 34,000  Level FlightAware
10:43AM 47.0290 18.6980 312° West 442 509 34,000 60 Level FlightAware
10:43AM 47.0760 18.6210 312° West 444 511 34,100 -180 Climbing FlightAware
10:44AM 47.1260 18.5390 312° West 446 513 33,800 -1,980 Descending FlightAware
10:44AM 47.1750 18.4590 312° West 456 525 31,800 -3,960 Descending FlightAware
10:45AM 47.2200 18.3850 312° West 468 539 29,500 -3,900 Descending FlightAware
10:45AM 47.2690 18.3040 312° West 464 534 27,500 -3,480 Descending FlightAware
10:46AM 47.3260 18.2090 312° West 461 531 25,100 -2,880 Descending FlightAware
10:47AM 47.3800 18.1190 312° West 433 498 23,700 -1,800 Descending FlightAware
10:47AM 47.4220 18.0490 312° West 410 472 22,900 -1,920 Descending FlightAware
10:48AM 47.4670 17.9730 311° West 398 458 21,500 -2,340 Descending FlightAware
10:48AM 47.5090 17.9040 312° West 388 447 20,300 -2,280 Descending FlightAware
10:49AM 47.5490 17.8360 311° West 384 442 18,900 -2,280 Descending FlightAware
10:50AM 47.5900 17.7670 311° West 373 429 17,700 -2,160 Descending FlightAware
10:50AM 47.6260 17.7060 311° West 368 423 16,500 -2,100 Descending FlightAware
10:51AM 47.6500 17.6560 305° West 358 412 15,700 -1,680 Descending FlightAware
10:51AM 47.6740 17.5740 294° West 339 390 14,800 -1,320 Descending FlightAware
10:52AM 47.6910 17.5150 293° West 325 374 14,300 -1,200 Descending FlightAware
10:53AM 47.7170 17.4220 293° West 304 350 13,300 -1,800 Descending FlightAware
10:53AM 47.7390 17.3440 293° West 316 364 11,700 -2,220 Descending FlightAware
10:54AM 47.7590 17.2710 292° West 314 361 10,500 -1,920 Descending FlightAware
10:54AM 47.7690 17.2350 292° West 311 358 10,000 -1,620 Descending FlightAware
10:54AM 47.7780 17.2020 292° West 306 352 9,600 -1,440 Descending FlightAware
10:55AM 47.7900 17.1620 294° West 300 345 9,100 -1,380 Descending FlightAware
10:55AM 47.8010 17.1210 292° West 291 335 8,600 -1,320 Descending FlightAware
10:55AM 47.8110 17.0860 293° West 284 327 8,200 -1,260 Descending FlightAware
10:56AM 47.8190 17.0570 292° West 279 321 7,900 -1,440 Descending FlightAware
10:56AM 47.8280 17.0240 292° West 274 315 7,400 -1,620 Descending FlightAware
10:56AM 47.8390 16.9840 292° West 268 308 6,800 -1,620 Descending FlightAware
10:57AM 47.8480 16.9500 292° West 265 305 6,300 -1,440 Descending FlightAware
10:57AM 47.8570 16.9190 293° West 260 299 5,900 -1,440 Descending FlightAware
10:57AM 47.8670 16.8810 291° West 256 295 5,300 -1,380 Descending FlightAware
10:58AM 47.8810 16.8450 300° West 243 280 4,800 -1,380 Descending FlightAware
10:58AM 47.8930 16.8170 303° West 239 275 4,300 -1,980 Descending FlightAware
10:58AM 47.9050 16.7890 303° West 239 275 3,500 -2,040 Descending FlightAware
10:59AM 47.9150 16.7670 304° West 239 275 3,100 -1,200 Descending FlightAware
10:59AM 47.9230 16.7480 302° West 232 267 2,900 -600 Descending FlightAware
10:59AM 47.9370 16.7170 304° West 215 247 2,700 -600 Descending FlightAware
11:00AM 47.9460 16.6960 303° West 202 232 2,500 -360 Descending FlightAware
11:00AM 47.9560 16.6740 304° West 184 212 2,500  Level FlightAware
11:00AM 47.9650 16.6520 301° West 181 208 2,500  Level FlightAware
11:00AM 47.9700 16.6440 313° West 184 212 2,500  Level FlightAware
11:01AM 47.9800 16.6380 338° Northwest 188 216 2,500 -240 Level FlightAware
11:01AM 47.9960 16.6310 344° North 171 197 2,400 -720 Descending FlightAware
11:01AM 48.0130 16.6230 343° North 161 185 2,000 -840 Descending FlightAware
11:02AM 48.0270 16.6170 344° North 149 171 1,800 -900 Descending FlightAware
11:02AM 48.0360 16.6140 347° North 147 169 1,500 -900 Descending FlightAware
11:02AM 48.0530 16.6070 345° North 137 158 1,200 -660 Descending FlightAware
11:03AM 48.0660 16.6010 343° North 136 157 1,000 -600 Descending FlightAware
11:03AM 48.0760 16.5970 345° North 136 157 800 -300 Descending FlightAware
11:04AM 48.0900 16.5900 342° North 136 157 800  Level FlightAware
11:06AM 48.1103 16.5697 326° Northwest  Level Estimated